Twin Springs, Nevada Weather observations

Data are for observation ending at time listed.
 Day   Time    Ave.   Ave.  Ave.  Vector   Max.   Stn.    Total    Solar   Ave.  
  of    of     Air    Rel.  Wind   Wind    Wind   Baro.  Precip.   Rad.    Soil  
Year   Day     Temp.  Hum.  Speed  Dir.    Gust   Pres.                    Temp. 
2016   (PST)    F      %     mph   deg.    mph     mb.     in.     W/m2     F   
------------------------------------------------------------------------------
 237   17:00   88.0     5   10.8   255     22.2    844     0.00     373    88.1
 237   18:00   86.0     6    9.8   254     21.5    843     0.00     145    88.6
 237   19:00   81.8     7    5.6   260     13.0    844     0.00       9    88.1
 237   20:00   74.9    10    3.2   324      8.8    844     0.00       0    86.9
 237   21:00   70.5    11    3.3   342     10.4    844     0.00       0    85.3
 237   22:00   63.9    13    4.2   319      7.1    845     0.00       0    83.7
 237   23:00   64.8    14    3.4   288      7.1    845     0.00       0    82.0
 238    0:00   64.4    14    2.5   342      6.1    845     0.00       0    80.5
 238    1:00   58.3    18    4.5   323      7.2    845     0.00       0    79.2
 238    2:00   53.7    22    5.6   303      8.8    845     0.00       0    77.9
 238    3:00   51.3    22    4.8   333      7.5    845     0.00       0    76.7
 238    4:00   54.6    18    4.5   358      6.9    845     0.00       0    75.5
 238    5:00   52.9    20    5.0   346      8.8    845     0.00       0    74.3
 238    6:00   48.4    27    4.6   304      7.5    846     0.00      27    73.3
 238    7:00   52.7    25    4.0   295      6.8    846     0.00     153    72.3
 238    8:00   64.7    15    3.4   317      6.3    846     0.00     427    71.6
 238    9:00   71.5    13    3.9   317      8.6    846     0.00     683    71.8
 238   10:00   77.6    11    3.0   149     12.9    845     0.00     846    73.2
 238   11:00   80.7    11    9.5   114     19.3    845     0.00     930    75.8
 238   12:00   82.7    12   11.1   111     22.8    844     0.00     607    79.1
 238   13:00   83.8    12    9.5   127     27.1    843     0.00     623    81.8
 238   14:00   86.6    11    4.4   163     20.8    842     0.00     657    83.1
 238   15:00   85.7    10    8.6   306     20.8    842     0.00     407    84.3
 238   16:00   87.7    10    6.7   309     16.8    841     0.00     543    85.0

Return to Twin Springs, Nevada graphs page.


Western Regional Climate Center,wrcc@dri.edu